createdAt,value
2019-04-05T00:01:10.014Z,119.00
2019-04-05T00:04:15.380Z,119.00
2019-04-05T00:07:20.662Z,119.00
2019-04-05T00:10:25.878Z,119.00
2019-04-05T00:13:31.156Z,119.00
2019-04-05T00:16:36.403Z,119.00
2019-04-05T00:19:41.699Z,119.00
2019-04-05T00:22:49.524Z,119.00
2019-04-05T00:25:54.821Z,119.00
2019-04-05T00:29:00.252Z,119.00
2019-04-05T00:32:05.618Z,119.00
2019-04-05T00:35:11.006Z,119.00
2019-04-05T00:38:16.406Z,119.00
2019-04-05T00:41:21.757Z,119.00
2019-04-05T00:44:27.133Z,119.00
2019-04-05T00:47:32.421Z,119.00
2019-04-05T00:50:37.777Z,119.00
2019-04-05T00:53:43.057Z,119.00
2019-04-05T00:56:48.349Z,119.00
2019-04-05T00:59:53.618Z,119.00
2019-04-05T01:02:58.852Z,119.00
2019-04-05T01:06:05.422Z,119.00
2019-04-05T01:09:10.671Z,119.00
2019-04-05T01:12:16.246Z,119.00
2019-04-05T01:15:21.593Z,119.00
2019-04-05T01:18:26.842Z,119.00
2019-04-05T01:21:37.426Z,119.00
2019-04-05T01:24:42.911Z,119.00
2019-04-05T01:27:50.036Z,119.00
2019-04-05T01:30:56.416Z,119.00
2019-04-05T01:34:01.826Z,119.00
2019-04-05T01:37:07.136Z,119.00
2019-04-05T01:40:12.597Z,119.00
2019-04-05T01:43:18.313Z,119.00
2019-04-05T01:46:23.583Z,119.00
2019-04-05T01:49:28.862Z,119.00
2019-04-05T01:52:34.471Z,119.00
2019-04-05T01:55:39.860Z,119.00
2019-04-05T01:58:45.226Z,119.00
2019-04-05T02:01:50.665Z,119.00
2019-04-05T02:04:55.948Z,119.00
2019-04-05T02:08:02.572Z,119.00
2019-04-05T02:11:08.962Z,119.00
2019-04-05T02:14:14.367Z,119.00
2019-04-05T02:17:19.642Z,119.00
2019-04-05T02:20:25.061Z,119.00
2019-04-05T02:23:30.340Z,119.00
2019-04-05T02:26:35.697Z,119.00
2019-04-05T02:29:41.022Z,119.00
2019-04-05T02:32:47.461Z,119.00
2019-04-05T02:35:52.816Z,119.00
2019-04-05T02:38:58.103Z,119.00
2019-04-05T02:42:03.942Z,119.00
2019-04-05T02:45:11.818Z,119.00
2019-04-05T02:48:18.867Z,119.00
2019-04-05T02:51:26.278Z,119.00
2019-04-05T02:54:33.040Z,119.00
2019-04-05T02:57:38.587Z,119.00
2019-04-05T03:00:45.066Z,119.00
2019-04-05T03:03:53.466Z,119.00
2019-04-05T03:06:59.115Z,119.00
2019-04-05T03:10:05.395Z,119.00
2019-04-05T03:13:10.887Z,119.00
2019-04-05T03:16:20.380Z,119.00
2019-04-05T03:19:29.616Z,119.00
2019-04-05T03:22:36.561Z,119.00
2019-04-05T03:25:42.230Z,119.00
2019-04-05T03:28:50.531Z,119.00
2019-04-05T03:31:55.826Z,119.00
2019-04-05T03:35:01.124Z,119.00
2019-04-05T03:38:06.962Z,119.00
2019-04-05T03:41:12.459Z,119.00
2019-04-05T03:44:17.888Z,119.00
2019-04-05T03:47:23.443Z,119.00
2019-04-05T03:50:28.640Z,119.00
2019-04-05T03:53:33.921Z,119.00
2019-04-05T03:56:39.200Z,119.00
2019-04-05T03:59:44.567Z,119.00
2019-04-05T04:02:52.170Z,119.00
2019-04-05T04:05:57.507Z,119.00
2019-04-05T04:09:04.652Z,119.00
2019-04-05T04:12:10.015Z,119.00
2019-04-05T04:15:16.000Z,119.00
2019-04-05T04:18:21.342Z,119.00
2019-04-05T04:21:34.534Z,119.00
2019-04-05T04:24:39.899Z,119.00
2019-04-05T04:27:45.506Z,119.00
2019-04-05T04:30:51.088Z,119.00
2019-04-05T04:33:58.764Z,119.00
2019-04-05T04:37:04.716Z,119.00
2019-04-05T04:40:09.972Z,119.00
2019-04-05T04:43:16.132Z,119.00
2019-04-05T04:46:23.675Z,119.00
2019-04-05T04:49:32.879Z,119.00
2019-04-05T04:52:38.492Z,119.00
2019-04-05T04:55:43.861Z,119.00
2019-04-05T04:58:49.505Z,119.00
2019-04-05T05:01:54.765Z,119.00
2019-04-05T05:05:00.040Z,119.00
2019-04-05T05:08:05.595Z,119.00
2019-04-05T05:11:14.822Z,119.00
2019-04-05T05:14:18.421Z,119.00
2019-04-05T05:17:23.777Z,119.00
2019-04-05T05:20:29.179Z,119.00
2019-04-05T05:23:34.661Z,119.00
2019-04-05T05:26:40.113Z,119.00
2019-04-05T05:29:45.481Z,119.00
2019-04-05T05:32:51.152Z,119.00
2019-04-05T05:35:56.570Z,119.00
2019-04-05T05:39:01.967Z,119.00
2019-04-05T05:42:07.826Z,119.00
2019-04-05T05:45:14.027Z,119.00
2019-04-05T05:48:19.761Z,119.00
2019-04-05T05:51:25.134Z,119.00
2019-04-05T05:54:30.484Z,119.00
2019-04-05T05:57:35.797Z,119.00
2019-04-05T06:00:41.076Z,119.00
2019-04-05T06:03:46.326Z,119.00
2019-04-05T06:06:51.615Z,119.00
2019-04-05T06:09:58.163Z,119.00
2019-04-05T06:13:06.684Z,119.00
2019-04-05T06:16:10.402Z,119.00
2019-04-05T06:19:15.636Z,119.00
2019-04-05T06:22:21.001Z,119.00
2019-04-05T06:25:26.267Z,119.00
2019-04-05T06:28:31.560Z,119.00
2019-04-05T06:31:36.911Z,119.00
2019-04-05T06:34:42.205Z,119.00
2019-04-05T06:37:47.516Z,119.00
2019-04-05T06:40:52.765Z,119.00
2019-04-05T06:43:58.060Z,119.00
2019-04-05T06:47:03.409Z,119.00
2019-04-05T06:50:09.032Z,119.00
2019-04-05T06:53:14.305Z,119.00
2019-04-05T06:56:19.566Z,119.00
2019-04-05T06:59:24.894Z,119.00
2019-04-05T07:02:30.181Z,119.00
2019-04-05T07:05:35.470Z,119.00
2019-04-05T07:08:52.757Z,119.00
2019-04-05T07:11:47.771Z,119.00
2019-04-05T07:14:56.303Z,119.00
2019-04-05T07:18:01.838Z,119.00
2019-04-05T07:21:07.146Z,119.00
2019-04-05T07:24:12.424Z,119.00
2019-04-05T07:27:17.803Z,119.00
2019-04-05T07:30:23.083Z,119.00
2019-04-05T07:33:28.419Z,119.00
2019-04-05T07:36:33.739Z,119.00
2019-04-05T07:39:39.102Z,119.00
2019-04-05T07:42:44.426Z,119.00
2019-04-05T07:45:49.758Z,119.00
2019-04-05T07:48:55.178Z,119.00
2019-04-05T07:52:00.639Z,119.00
2019-04-05T07:55:06.205Z,119.00
2019-04-05T07:58:11.470Z,119.00
2019-04-05T08:01:16.740Z,119.00
2019-04-05T08:04:22.003Z,119.00
2019-04-05T08:07:31.913Z,119.00
2019-04-05T08:10:37.509Z,118.74
2019-04-05T08:13:44.441Z,118.84
2019-04-05T08:16:49.908Z,119.00
2019-04-05T08:19:55.205Z,118.90
2019-04-05T08:23:02.134Z,118.97
2019-04-05T08:26:07.634Z,118.87
2019-04-05T08:29:12.940Z,119.00
2019-04-05T08:32:18.226Z,118.89
2019-04-05T08:35:23.633Z,118.45
2019-04-05T08:38:28.928Z,118.55
2019-04-05T08:41:34.303Z,118.21
2019-04-05T08:44:39.658Z,118.98
2019-04-05T08:47:44.938Z,118.94
2019-04-05T08:50:50.246Z,118.43
2019-04-05T08:53:55.515Z,117.97
2019-04-05T08:57:00.809Z,117.69
2019-04-05T09:00:07.193Z,117.46
2019-04-05T09:03:12.522Z,117.31
2019-04-05T09:06:17.794Z,116.53
2019-04-05T09:09:23.066Z,116.57
2019-04-05T09:12:28.349Z,116.55
2019-04-05T09:15:33.660Z,116.81
2019-04-05T09:18:38.995Z,116.38
2019-04-05T09:21:44.248Z,115.69
2019-04-05T09:24:49.613Z,115.30
2019-04-05T09:27:54.879Z,115.72
2019-04-05T09:31:00.187Z,115.91
2019-04-05T09:34:05.688Z,115.14
2019-04-05T09:37:11.014Z,115.74
2019-04-05T09:40:16.371Z,115.44
2019-04-05T09:43:21.611Z,115.30
2019-04-05T09:46:26.852Z,115.53
2019-04-05T09:49:37.029Z,115.23
2019-04-05T09:52:41.243Z,114.94
2019-04-05T09:55:46.526Z,115.09
2019-04-05T09:58:54.285Z,115.60
2019-04-05T10:02:00.430Z,115.19
2019-04-05T10:05:06.899Z,114.64
2019-04-05T10:08:12.160Z,114.81
2019-04-05T10:11:17.489Z,114.63
2019-04-05T10:14:22.713Z,114.94
2019-04-05T10:17:28.000Z,114.40
2019-04-05T10:20:33.295Z,116.02
2019-04-05T10:23:38.620Z,116.33
2019-04-05T10:26:43.878Z,116.04
2019-04-05T10:29:49.601Z,114.94
2019-04-05T10:32:55.191Z,114.56
2019-04-05T10:36:00.489Z,115.56
2019-04-05T10:39:08.566Z,115.92
2019-04-05T10:42:26.635Z,115.99
2019-04-05T10:45:31.919Z,114.17
2019-04-05T10:48:37.320Z,113.27
2019-04-05T10:51:42.618Z,114.09
2019-04-05T10:54:47.827Z,112.58
2019-04-05T10:57:53.164Z,112.82
2019-04-05T11:00:58.527Z,112.60
2019-04-05T11:04:03.772Z,112.47
2019-04-05T11:07:09.138Z,112.72
2019-04-05T11:10:14.949Z,112.40
2019-04-05T11:13:20.244Z,113.54
2019-04-05T11:16:25.542Z,113.91
2019-04-05T11:19:32.675Z,113.95
2019-04-05T11:22:38.063Z,113.68
2019-04-05T11:25:43.445Z,112.56
2019-04-05T11:28:48.712Z,113.24
2019-04-05T11:31:57.335Z,114.38
2019-04-05T11:35:00.988Z,115.06
2019-04-05T11:38:06.429Z,115.23
2019-04-05T11:41:12.206Z,115.04
2019-04-05T11:44:17.722Z,114.56
2019-04-05T11:47:23.004Z,114.55
2019-04-05T11:50:34.496Z,114.36
2019-04-05T11:53:35.625Z,113.34
2019-04-05T11:56:40.872Z,112.63
2019-04-05T11:59:48.586Z,112.80
2019-04-05T12:02:57.615Z,112.50
2019-04-05T12:06:02.910Z,113.35
2019-04-05T12:09:09.198Z,112.60
2019-04-05T12:12:14.554Z,112.23
2019-04-05T12:15:19.798Z,112.34
2019-04-05T12:18:25.100Z,111.85
2019-04-05T12:21:30.471Z,110.95
2019-04-05T12:24:35.696Z,111.31
2019-04-05T12:27:40.999Z,110.66
2019-04-05T12:30:47.779Z,110.99
2019-04-05T12:33:53.079Z,111.91
2019-04-05T12:36:58.479Z,111.34
2019-04-05T12:40:05.188Z,111.44
2019-04-05T12:43:13.535Z,110.95
2019-04-05T12:46:19.415Z,110.18
2019-04-05T12:49:24.803Z,110.78
2019-04-05T12:52:30.167Z,112.24
2019-04-05T12:55:35.913Z,111.18
2019-04-05T12:58:42.603Z,110.78
2019-04-05T13:01:47.857Z,109.31
2019-04-05T13:04:53.324Z,109.79
2019-04-05T13:07:58.594Z,111.92
2019-04-05T13:11:04.066Z,112.27
2019-04-05T13:14:09.417Z,111.69
2019-04-05T13:17:14.724Z,111.50
2019-04-05T13:20:20.019Z,111.76
2019-04-05T13:23:25.333Z,111.82
2019-04-05T13:26:30.681Z,112.39
2019-04-05T13:29:36.056Z,111.57
2019-04-05T13:32:41.344Z,111.08
2019-04-05T13:35:46.644Z,111.66
2019-04-05T13:38:55.085Z,114.01
2019-04-05T13:41:59.461Z,113.46
2019-04-05T13:45:06.206Z,112.37
2019-04-05T13:48:11.528Z,113.30
2019-04-05T13:51:27.357Z,113.71
2019-04-05T13:54:23.834Z,112.98
2019-04-05T13:57:29.133Z,113.66
2019-04-05T14:00:34.642Z,115.14
2019-04-05T14:03:39.944Z,116.20
2019-04-05T14:06:45.274Z,115.56
2019-04-05T14:09:50.723Z,113.62
2019-04-05T14:12:56.056Z,113.31
2019-04-05T14:16:01.381Z,113.56
2019-04-05T14:19:06.661Z,113.59
2019-04-05T14:22:11.902Z,114.03
2019-04-05T14:25:17.253Z,113.69
2019-04-05T14:28:22.522Z,114.37
2019-04-05T14:31:29.586Z,114.03
2019-04-05T14:34:35.949Z,113.34
2019-04-05T14:37:42.777Z,114.66
2019-04-05T14:40:48.055Z,114.17
2019-04-05T14:43:53.417Z,114.54
2019-04-05T14:46:58.766Z,114.47
2019-04-05T14:50:04.286Z,114.64
2019-04-05T14:53:11.661Z,115.47
2019-04-05T14:56:17.151Z,115.17
2019-04-05T14:59:22.617Z,113.37
2019-04-05T15:02:27.988Z,114.21
2019-04-05T15:05:33.257Z,114.37
2019-04-05T15:08:38.579Z,115.11
2019-04-05T15:11:43.936Z,115.04
2019-04-05T15:14:49.348Z,114.64
2019-04-05T15:17:54.648Z,114.71
2019-04-05T15:21:01.490Z,114.94
2019-04-05T15:24:08.771Z,114.58
2019-04-05T15:27:13.961Z,114.22
2019-04-05T15:30:19.523Z,114.12
2019-04-05T15:33:25.561Z,114.72
2019-04-05T15:36:32.273Z,115.04
2019-04-05T15:39:37.779Z,115.10
2019-04-05T15:42:43.398Z,115.03
2019-04-05T15:45:48.751Z,115.26
2019-04-05T15:48:54.091Z,115.72
2019-04-05T15:51:59.385Z,116.40
2019-04-05T15:55:05.238Z,116.53
2019-04-05T15:58:10.591Z,117.24
2019-04-05T16:01:16.156Z,117.21
2019-04-05T16:04:21.533Z,117.04
2019-04-05T16:07:27.675Z,117.17
2019-04-05T16:10:32.918Z,116.94
2019-04-05T16:13:38.237Z,117.28
2019-04-05T16:16:46.524Z,116.75
2019-04-05T16:19:52.029Z,117.42
2019-04-05T16:22:57.356Z,117.58
2019-04-05T16:26:02.760Z,117.55
2019-04-05T16:29:08.007Z,117.38
2019-04-05T16:32:13.290Z,117.17
2019-04-05T16:35:18.598Z,117.87
2019-04-05T16:38:23.895Z,118.00
2019-04-05T16:41:29.281Z,118.03
2019-04-05T16:44:36.887Z,117.94
2019-04-05T16:47:42.207Z,118.22
2019-04-05T16:50:47.522Z,118.21
2019-04-05T16:54:03.081Z,118.11
2019-04-05T16:57:08.626Z,118.19
2019-04-05T17:00:14.926Z,118.74
2019-04-05T17:03:20.265Z,119.00
2019-04-05T17:06:25.593Z,119.00
2019-04-05T17:09:30.905Z,119.00
2019-04-05T17:12:36.231Z,119.00
2019-04-05T17:15:41.462Z,119.00
2019-04-05T17:18:46.786Z,119.00
2019-04-05T17:21:52.098Z,119.00
2019-04-05T17:24:57.515Z,119.00
2019-04-05T17:28:02.821Z,119.00
2019-04-05T17:31:08.082Z,119.00
2019-04-05T17:34:13.432Z,119.00
2019-04-05T17:37:18.667Z,119.00
2019-04-05T17:40:24.031Z,119.00
2019-04-05T17:43:29.446Z,119.00
2019-04-05T17:46:36.262Z,119.00
2019-04-05T17:49:42.971Z,119.00
2019-04-05T17:52:48.277Z,119.00
2019-04-05T17:55:53.905Z,119.00
2019-04-05T17:59:00.037Z,119.00
2019-04-05T18:02:06.650Z,119.00
2019-04-05T18:05:12.093Z,119.00
2019-04-05T18:08:17.437Z,119.00
2019-04-05T18:11:22.761Z,119.00
2019-04-05T18:14:28.250Z,119.00
2019-04-05T18:17:33.546Z,119.00
2019-04-05T18:20:38.820Z,119.00
2019-04-05T18:23:44.133Z,119.00
2019-04-05T18:26:49.454Z,119.00
2019-04-05T18:29:54.910Z,119.00
2019-04-05T18:33:00.298Z,119.00
2019-04-05T18:36:05.701Z,119.00
2019-04-05T18:39:11.256Z,119.00
2019-04-05T18:42:18.105Z,119.00
2019-04-05T18:45:23.381Z,119.00
2019-04-05T18:48:28.785Z,119.00
2019-04-05T18:51:34.149Z,119.00
2019-04-05T18:54:39.516Z,119.00
2019-04-05T18:57:45.004Z,119.00
2019-04-05T19:00:53.200Z,119.00
2019-04-05T19:03:58.627Z,119.00
2019-04-05T19:07:04.165Z,119.00
2019-04-05T19:10:09.532Z,119.00
2019-04-05T19:13:14.814Z,119.00
2019-04-05T19:16:20.133Z,119.00
2019-04-05T19:19:25.470Z,119.00
2019-04-05T19:22:30.765Z,119.00
2019-04-05T19:25:36.019Z,119.00
2019-04-05T19:28:41.346Z,119.00
2019-04-05T19:50:31.310Z,119.00
2019-04-05T19:53:36.619Z,119.00
2019-04-05T19:56:42.017Z,119.00
2019-04-05T19:59:47.281Z,119.00
2019-04-05T20:02:52.606Z,119.00
2019-04-05T20:05:59.558Z,119.00
2019-04-05T20:09:07.856Z,119.00
2019-04-05T20:12:13.354Z,119.00
2019-04-05T20:15:18.921Z,119.00
2019-04-05T20:18:24.460Z,119.00
2019-04-05T20:21:29.762Z,119.00
2019-04-05T20:24:35.152Z,119.00
2019-04-05T20:27:40.494Z,119.00
2019-04-05T20:30:45.824Z,119.00
2019-04-05T20:33:51.189Z,119.00
2019-04-05T20:36:56.584Z,119.00
2019-04-05T20:40:01.966Z,119.00
2019-04-05T20:43:09.034Z,119.00
2019-04-05T20:46:14.436Z,119.00
2019-04-05T20:49:21.495Z,119.00
2019-04-05T20:52:26.944Z,119.00
2019-04-05T20:55:32.287Z,119.00
2019-04-05T20:58:37.577Z,119.00
2019-04-05T21:01:42.821Z,119.00
2019-04-05T21:04:48.165Z,119.00
2019-04-05T21:07:56.433Z,119.00
2019-04-05T21:11:01.850Z,119.00
2019-04-05T21:14:07.222Z,119.00
2019-04-05T21:17:12.599Z,119.00
2019-04-05T21:20:18.130Z,119.00
2019-04-05T21:23:23.436Z,119.00
2019-04-05T21:26:28.781Z,119.00
2019-04-05T21:29:35.284Z,119.00
2019-04-05T21:32:40.698Z,119.00
2019-04-05T21:35:46.280Z,119.00
2019-04-05T21:38:52.502Z,119.00
2019-04-05T21:41:57.820Z,119.00
2019-04-05T21:45:03.153Z,119.00
2019-04-05T21:48:13.107Z,119.00
2019-04-05T21:51:18.470Z,119.00
2019-04-05T21:54:23.866Z,119.00
2019-04-05T21:57:29.172Z,119.00
2019-04-05T22:00:48.175Z,119.00
2019-04-05T22:03:53.560Z,119.00
2019-04-05T22:06:58.880Z,119.00
2019-04-05T22:10:05.808Z,119.00
2019-04-05T22:13:11.124Z,119.00
2019-04-05T22:16:18.559Z,119.00
2019-04-05T22:19:23.481Z,119.00
2019-04-05T22:22:28.756Z,119.00
2019-04-05T22:25:34.135Z,119.00
2019-04-05T22:28:39.538Z,119.00
2019-04-05T22:31:44.811Z,119.00
2019-04-05T22:34:50.259Z,119.00
2019-04-05T22:37:55.534Z,119.00
2019-04-05T22:41:00.963Z,119.00
2019-04-05T22:44:06.345Z,119.00
2019-04-05T22:47:11.624Z,119.00
2019-04-05T22:50:16.998Z,119.00
2019-04-05T22:53:22.226Z,119.00
2019-04-05T22:56:27.613Z,119.00
2019-04-05T22:59:34.938Z,119.00
2019-04-05T23:02:43.659Z,119.00
2019-04-05T23:05:48.986Z,119.00
2019-04-05T23:08:54.277Z,119.00
2019-04-05T23:11:59.685Z,119.00
2019-04-05T23:15:05.984Z,119.00
2019-04-05T23:18:11.326Z,119.00
2019-04-05T23:21:17.751Z,119.00
2019-04-05T23:24:23.077Z,119.00
2019-04-05T23:27:28.440Z,119.00
2019-04-05T23:30:33.819Z,119.00
2019-04-05T23:33:39.100Z,119.00
2019-04-05T23:36:44.353Z,119.00
2019-04-05T23:39:49.688Z,119.00
2019-04-05T23:43:03.893Z,119.00
2019-04-05T23:46:05.875Z,119.00
2019-04-05T23:49:11.272Z,119.00
2019-04-05T23:52:16.753Z,119.00
2019-04-05T23:55:32.541Z,119.00
2019-04-05T23:58:29.090Z,119.00
